Wetterdaten: Woche 26.08.19 - 01.09.19 (KW35)
Datum Zeit Temp. Aussen Temp. o. S. +5cm Feuchte Auss Luftdruck Regen Sonnenschein Regendauer Solar Windben Empfang
26.08.2019 00:00 22,5 C 20,0 C 19,1 C 72 % 1018,9 hPa 0,0 l/m 0,00 h 0,00 h 0 W/m 0,0 km/h (0 Bft) 98,79 %
26.08.2019 01:00 21,3 C 19,3 C 18,8 C 74 % 1018,6 hPa 0,0 l/m 0,00 h 0,00 h 0 W/m 0,0 km/h (0 Bft) 97,93 %
26.08.2019 02:00 20,5 C 18,8 C 18,2 C 77 % 1018,2 hPa 0,0 l/m 0,00 h 0,00 h 0 W/m 0,0 km/h (0 Bft) 96,66 %
26.08.2019 03:00 19,9 C 18,0 C 17,3 C 79 % 1018,2 hPa 0,0 l/m 0,00 h 0,00 h 0 W/m 0,0 km/h (0 Bft) 97,27 %
26.08.2019 04:00 19,2 C 17,5 C 16,8 C 82 % 1018,3 hPa 0,0 l/m 0,00 h 0,00 h 0 W/m 0,0 km/h (0 Bft) 97,18 %
26.08.2019 05:00 18,6 C 17,0 C 16,2 C 84 % 1018,1 hPa 0,0 l/m 0,00 h 0,00 h 0 W/m 0,0 km/h (0 Bft) 98,36 %
26.08.2019 06:00 18,1 C 16,5 C 15,9 C 86 % 1018,2 hPa 0,0 l/m 0,00 h 0,00 h 6 W/m 0,0 km/h (0 Bft) 97,17 %
26.08.2019 07:00 17,8 C 17,3 C 16,4 C 89 % 1018,4 hPa 0,0 l/m 0,00 h 0,00 h 25 W/m 0,0 km/h (0 Bft) 96,41 %
26.08.2019 08:00 18,4 C 20,3 C 18,3 C 93 % 1018,6 hPa 0,0 l/m 0,13 h 0,00 h 85 W/m 0,0 km/h (0 Bft) 98,65 %
26.08.2019 09:00 21,7 C 27,2 C 24,9 C 87 % 1018,7 hPa 0,0 l/m 1,00 h 0,00 h 325 W/m 2,5 km/h (1 Bft) 97,43 %
26.08.2019 10:00 26,4 C 31,5 C 30,8 C 72 % 1018,8 hPa 0,0 l/m 1,00 h 0,00 h 493 W/m 3,0 km/h (1 Bft) 95,59 %
26.08.2019 11:00 29,1 C 34,6 C 29,2 C 65 % 1018,5 hPa 0,0 l/m 1,00 h 0,00 h 622 W/m 3,5 km/h (1 Bft) 99,64 %
26.08.2019 12:00 31,3 C 37,1 C 29,6 C 61 % 1018,0 hPa 0,0 l/m 1,00 h 0,00 h 720 W/m 5,9 km/h (2 Bft) 97,23 %
26.08.2019 13:00 33,2 C 38,4 C 32,3 C 54 % 1017,7 hPa 0,0 l/m 1,00 h 0,00 h 750 W/m 5,1 km/h (1 Bft) 97,15 %
26.08.2019 14:00 33,9 C 38,4 C 34,9 C 51 % 1017,3 hPa 0,0 l/m 1,00 h 0,00 h 729 W/m 7,3 km/h (2 Bft) 96,16 %
26.08.2019 15:00 34,6 C 39,4 C 32,8 C 49 % 1016,5 hPa 0,0 l/m 1,00 h 0,00 h 688 W/m 3,5 km/h (1 Bft) 98,79 %
26.08.2019 16:00 34,8 C 38,4 C 33,8 C 46 % 1016,2 hPa 0,0 l/m 1,00 h 0,00 h 564 W/m 4,2 km/h (1 Bft) 96,37 %
26.08.2019 17:00 34,6 C 37,1 C 31,5 C 47 % 1015,9 hPa 0,0 l/m 0,97 h 0,00 h 373 W/m 1,5 km/h (1 Bft) 99,07 %
26.08.2019 18:00 33,5 C 32,9 C 29,7 C 44 % 1015,8 hPa 0,0 l/m 0,60 h 0,00 h 158 W/m 6,5 km/h (2 Bft) 97,56 %
26.08.2019 19:00 31,8 C 29,6 C 26,3 C 52 % 1015,7 hPa 0,0 l/m 0,00 h 0,00 h 55 W/m 1,0 km/h (0 Bft) 97,72 %
26.08.2019 20:00 29,2 C 26,1 C 23,7 C 60 % 1015,7 hPa 0,0 l/m 0,00 h 0,00 h 15 W/m 0,4 km/h (0 Bft) 97,51 %
26.08.2019 21:00 26,7 C 23,5 C 22,0 C 68 % 1015,8 hPa 0,0 l/m 0,00 h 0,00 h 0 W/m 0,0 km/h (0 Bft) 97,08 %
26.08.2019 22:00 24,7 C 22,5 C 21,1 C 72 % 1016,2 hPa 0,0 l/m 0,00 h 0,00 h 0 W/m 0,0 km/h (0 Bft) 98,06 %
26.08.2019 23:00 23,6 C 21,3 C 20,3 C 76 % 1016,2 hPa 0,0 l/m 0,00 h 0,00 h 0 W/m 0,0 km/h (0 Bft) 97,15 %
27.08.2019 00:00 22,5 C 20,5 C 19,5 C 79 % 1016,0 hPa 0,0 l/m 0,00 h 0,00 h 0 W/m 0,0 km/h (0 Bft) 98,82 %
27.08.2019 01:00 21,6 C 19,5 C 18,8 C 82 % 1016,0 hPa 0,0 l/m 0,00 h 0,00 h 0 W/m 0,0 km/h (0 Bft) 97,71 %
27.08.2019 02:00 20,8 C 18,7 C 18,2 C 83 % 1015,8 hPa 0,0 l/m 0,00 h 0,00 h 0 W/m 0,0 km/h (0 Bft) 95,74 %
27.08.2019 03:00 20,1 C 18,3 C 17,8 C 85 % 1015,8 hPa 0,0 l/m 0,00 h 0,00 h 0 W/m 0,0 km/h (0 Bft) 99,37 %
27.08.2019 04:00 19,8 C 18,4 C 17,6 C 89 % 1015,5 hPa 0,0 l/m 0,00 h 0,00 h 0 W/m 0,3 km/h (0 Bft) 97,83 %
27.08.2019 05:00 19,4 C 18,1 C 17,3 C 90 % 1015,3 hPa 0,0 l/m 0,00 h 0,00 h 0 W/m 0,3 km/h (0 Bft) 95,38 %
27.08.2019 06:00 19,2 C 18,3 C 17,3 C 92 % 1015,2 hPa 0,0 l/m 0,00 h 0,00 h 6 W/m 1,0 km/h (0 Bft) 98,86 %
27.08.2019 07:00 19,6 C 19,6 C 18,9 C 92 % 1015,5 hPa 0,0 l/m 0,00 h 0,00 h 24 W/m 4,1 km/h (1 Bft) 96,80 %
27.08.2019 08:00 20,9 C 21,8 C 20,8 C 88 % 1015,8 hPa 0,0 l/m 0,10 h 0,00 h 78 W/m 10,4 km/h (2 Bft) 97,08 %
27.08.2019 09:00 24,1 C 27,7 C 25,9 C 76 % 1016,0 hPa 0,0 l/m 1,00 h 0,00 h 348 W/m 14,0 km/h (3 Bft) 98,91 %
27.08.2019 10:00 27,5 C 31,8 C 32,2 C 67 % 1016,2 hPa 0,0 l/m 1,00 h 0,00 h 512 W/m 10,0 km/h (2 Bft) 94,97 %
27.08.2019 11:00 30,3 C 35,1 C 30,7 C 60 % 1016,1 hPa 0,0 l/m 1,00 h 0,00 h 650 W/m 10,1 km/h (2 Bft) 98,29 %
27.08.2019 12:00 32,5 C 38,4 C 30,8 C 54 % 1015,6 hPa 0,0 l/m 1,00 h 0,00 h 746 W/m 7,0 km/h (2 Bft) 97,62 %
27.08.2019 13:00 34,1 C 39,5 C 33,1 C 50 % 1015,8 hPa 0,0 l/m 1,00 h 0,00 h 776 W/m 6,2 km/h (2 Bft) 96,81 %
27.08.2019 14:00 34,7 C 39,0 C 35,9 C 45 % 1015,5 hPa 0,0 l/m 1,00 h 0,00 h 758 W/m 10,1 km/h (2 Bft) 98,79 %
27.08.2019 15:00 34,9 C 38,9 C 33,3 C 43 % 1014,9 hPa 0,0 l/m 1,00 h 0,00 h 700 W/m 9,3 km/h (2 Bft) 98,58 %
27.08.2019 16:00 35,0 C 38,1 C 34,2 C 43 % 1014,9 hPa 0,0 l/m 1,00 h 0,00 h 552 W/m 5,5 km/h (1 Bft) 95,88 %
27.08.2019 17:00 34,8 C 34,9 C 31,7 C 42 % 1014,4 hPa 0,0 l/m 0,47 h 0,00 h 255 W/m 5,0 km/h (1 Bft) 95,80 %
27.08.2019 18:00 32,7 C 30,7 C 28,6 C 47 % 1013,3 hPa 0,0 l/m 0,00 h 0,00 h 39 W/m 3,7 km/h (1 Bft) 98,23 %
27.08.2019 19:00 30,7 C 28,2 C 27,2 C 55 % 1012,9 hPa 0,0 l/m 0,10 h 0,00 h 31 W/m 0,2 km/h (0 Bft) 97,80 %
27.08.2019 20:00 28,7 C 26,4 C 25,9 C 61 % 1012,6 hPa 0,0 l/m 0,33 h 0,07 h 28 W/m 1,7 km/h (1 Bft) 97,41 %
27.08.2019 21:00 27,0 C 24,5 C 23,7 C 67 % 1013,3 hPa 0,0 l/m 0,00 h 0,00 h 0 W/m 1,8 km/h (1 Bft) 95,37 %
27.08.2019 22:00 25,8 C 24,1 C 24,0 C 70 % 1012,9 hPa 0,0 l/m 0,00 h 0,00 h 0 W/m 4,3 km/h (1 Bft) 99,72 %
27.08.2019 23:00 24,9 C 23,1 C 23,0 C 71 % 1012,3 hPa 0,0 l/m 0,00 h 0,00 h 0 W/m 4,2 km/h (1 Bft) 97,37 %
28.08.2019 00:00 23,9 C 21,9 C 21,7 C 74 % 1011,5 hPa 0,0 l/m 0,00 h 0,00 h 0 W/m 1,9 km/h (1 Bft) 95,95 %
28.08.2019 01:00 22,8 C 21,4 C 21,1 C 76 % 1011,3 hPa 0,0 l/m 0,00 h 0,00 h 0 W/m 5,1 km/h (1 Bft) 99,43 %
28.08.2019 02:00 22,3 C 21,1 C 20,9 C 80 % 1011,0 hPa 0,0 l/m 0,00 h 0,00 h 0 W/m 6,9 km/h (2 Bft) 97,30 %
28.08.2019 03:00 21,8 C 20,4 C 20,4 C 82 % 1010,8 hPa 0,0 l/m 0,00 h 0,00 h 0 W/m 6,4 km/h (2 Bft) 95,44 %
28.08.2019 04:00 21,3 C 19,9 C 19,8 C 85 % 1011,0 hPa 0,0 l/m 0,00 h 0,00 h 0 W/m 6,9 km/h (2 Bft) 98,96 %
28.08.2019 05:00 20,7 C 19,4 C 19,4 C 87 % 1011,0 hPa 0,0 l/m 0,00 h 0,00 h 0 W/m 6,6 km/h (2 Bft) 97,79 %
28.08.2019 06:00 20,4 C 19,1 C 19,0 C 89 % 1011,2 hPa 0,0 l/m 0,00 h 0,00 h 5 W/m 4,7 km/h (1 Bft) 95,07 %
28.08.2019 07:00 20,0 C 19,0 C 18,9 C 90 % 1012,3 hPa 0,0 l/m 0,00 h 0,00 h 22 W/m 4,4 km/h (1 Bft) 99,00 %
28.08.2019 08:00 20,1 C 20,2 C 19,6 C 91 % 1013,7 hPa 0,0 l/m 0,00 h 0,00 h 48 W/m 4,4 km/h (1 Bft) 97,51 %
28.08.2019 09:00 21,6 C 25,4 C 24,0 C 87 % 1014,0 hPa 0,0 l/m 0,50 h 0,00 h 260 W/m 6,8 km/h (2 Bft) 95,87 %
28.08.2019 10:00 26,5 C 31,7 C 31,4 C 65 % 1014,1 hPa 0,0 l/m 1,00 h 0,00 h 528 W/m 7,8 km/h (2 Bft) 97,59 %
28.08.2019 11:00 29,4 C 33,8 C 29,8 C 58 % 1014,3 hPa 0,0 l/m 1,00 h 0,00 h 640 W/m 8,6 km/h (2 Bft) 98,65 %
28.08.2019 12:00 30,6 C 34,7 C 29,6 C 56 % 1014,2 hPa 0,0 l/m 1,00 h 0,00 h 632 W/m 7,3 km/h (2 Bft) 97,90 %
28.08.2019 13:00 30,2 C 32,4 C 29,7 C 56 % 1014,2 hPa 0,0 l/m 0,83 h 0,00 h 529 W/m 11,5 km/h (2 Bft) 96,16 %
28.08.2019 14:00 30,2 C 32,3 C 30,1 C 56 % 1014,3 hPa 0,0 l/m 1,00 h 0,00 h 486 W/m 9,6 km/h (2 Bft) 98,36 %
28.08.2019 15:00 31,2 C 34,6 C 30,5 C 52 % 1014,0 hPa 0,0 l/m 1,00 h 0,00 h 583 W/m 6,9 km/h (2 Bft) 98,22 %
28.08.2019 16:00 32,0 C 34,8 C 31,5 C 51 % 1013,8 hPa 0,0 l/m 1,00 h 0,00 h 536 W/m 8,8 km/h (2 Bft) 97,44 %
28.08.2019 17:00 31,2 C 32,0 C 29,6 C 49 % 1013,9 hPa 0,0 l/m 1,00 h 0,00 h 305 W/m 7,3 km/h (2 Bft) 95,73 %
28.08.2019 18:00 29,9 C 28,9 C 28,0 C 52 % 1014,0 hPa 0,0 l/m 0,03 h 0,00 h 125 W/m 3,2 km/h (1 Bft) 98,42 %
28.08.2019 19:00 28,6 C 26,7 C 24,8 C 60 % 1013,9 hPa 0,0 l/m 0,00 h 0,00 h 48 W/m 0,2 km/h (0 Bft) 99,00 %
28.08.2019 20:00 27,0 C 24,1 C 22,2 C 68 % 1014,1 hPa 0,0 l/m 0,00 h 0,00 h 9 W/m 0,0 km/h (0 Bft) 95,94 %
28.08.2019 21:00 25,2 C 23,0 C 21,3 C 72 % 1014,3 hPa 0,0 l/m 0,00 h 0,00 h 0 W/m 0,0 km/h (0 Bft) 96,51 %
28.08.2019 22:00 24,0 C 22,4 C 21,0 C 74 % 1014,7 hPa 0,0 l/m 0,00 h 0,00 h 0 W/m 0,5 km/h (0 Bft) 99,36 %
28.08.2019 23:00 23,4 C 22,0 C 20,7 C 75 % 1015,1 hPa 0,0 l/m 0,00 h 0,00 h 0 W/m 0,1 km/h (0 Bft) 96,65 %
29.08.2019 00:00 22,9 C 21,3 C 20,4 C 77 % 1015,4 hPa 0,0 l/m 0,00 h 0,00 h 0 W/m 0,0 km/h (0 Bft) 96,07 %
29.08.2019 01:00 22,3 C 20,8 C 20,6 C 80 % 1015,4 hPa 0,0 l/m 0,00 h 0,00 h 0 W/m 0,0 km/h (0 Bft) 99,50 %
29.08.2019 02:00 21,7 C 20,1 C 20,0 C 84 % 1015,2 hPa 0,0 l/m 0,00 h 0,00 h 0 W/m 0,3 km/h (0 Bft) 96,58 %
29.08.2019 03:00 21,0 C 19,7 C 19,8 C 87 % 1015,8 hPa 0,0 l/m 0,00 h 0,00 h 0 W/m 5,4 km/h (1 Bft) 96,58 %
29.08.2019 04:00 20,2 C 18,7 C 18,7 C 86 % 1016,2 hPa 0,0 l/m 0,00 h 0,00 h 0 W/m 6,1 km/h (2 Bft) 99,36 %
29.08.2019 05:00 19,6 C 17,8 C 17,8 C 89 % 1016,7 hPa 8,4 l/m 0,00 h 0,57 h 0 W/m 2,2 km/h (1 Bft) 96,01 %
29.08.2019 06:00 18,7 C 16,7 C 16,7 C 93 % 1017,1 hPa 2,2 l/m 0,00 h 0,67 h 0 W/m 0,7 km/h (0 Bft) 98,08 %
29.08.2019 07:00 18,0 C 16,7 C 16,6 C 95 % 1017,6 hPa 0,0 l/m 0,00 h 0,00 h 17 W/m 1,7 km/h (1 Bft) 98,15 %
29.08.2019 08:00 18,0 C 17,5 C 17,0 C 96 % 1018,0 hPa 0,0 l/m 0,00 h 0,00 h 91 W/m 2,2 km/h (1 Bft) 96,22 %
29.08.2019 09:00 18,7 C 19,3 C 18,2 C 97 % 1018,6 hPa 0,0 l/m 0,23 h 0,00 h 216 W/m 3,3 km/h (1 Bft) 99,08 %
29.08.2019 10:00 20,0 C 22,1 C 19,4 C 92 % 1019,2 hPa 0,0 l/m 0,43 h 0,00 h 284 W/m 5,0 km/h (1 Bft) 96,65 %
29.08.2019 11:00 21,2 C 24,8 C 19,8 C 85 % 1019,4 hPa 0,0 l/m 0,53 h 0,00 h 453 W/m 5,5 km/h (1 Bft) 98,14 %
29.08.2019 12:00 23,7 C 27,7 C 22,9 C 77 % 1019,6 hPa 0,0 l/m 0,83 h 0,00 h 565 W/m 7,2 km/h (2 Bft) 96,99 %
29.08.2019 13:00 23,7 C 26,9 C 23,7 C 76 % 1020,0 hPa 0,0 l/m 0,67 h 0,00 h 475 W/m 4,6 km/h (1 Bft) 96,94 %
29.08.2019 14:00 25,6 C 31,3 C 26,5 C 71 % 1020,0 hPa 0,0 l/m 0,93 h 0,00 h 730 W/m 7,6 km/h (2 Bft) 99,22 %
29.08.2019 15:00 26,3 C 30,2 C 24,8 C 67 % 1019,8 hPa 0,0 l/m 0,93 h 0,00 h 608 W/m 7,4 km/h (2 Bft) 96,51 %
29.08.2019 16:00 26,5 C 30,2 C 25,6 C 64 % 1019,6 hPa 0,0 l/m 0,87 h 0,00 h 541 W/m 8,0 km/h (2 Bft) 97,23 %
29.08.2019 17:00 26,6 C 28,9 C 24,3 C 63 % 1019,7 hPa 0,0 l/m 0,97 h 0,00 h 399 W/m 5,7 km/h (1 Bft) 97,65 %
29.08.2019 18:00 25,3 C 25,0 C 22,4 C 67 % 1019,9 hPa 0,0 l/m 0,50 h 0,00 h 168 W/m 5,9 km/h (2 Bft) 96,61 %
29.08.2019 19:00 23,2 C 21,5 C 21,0 C 73 % 1020,3 hPa 0,0 l/m 0,00 h 0,00 h 45 W/m 4,6 km/h (1 Bft) 99,00 %
29.08.2019 20:00 21,6 C 19,2 C 18,8 C 77 % 1020,8 hPa 0,0 l/m 0,00 h 0,00 h 10 W/m 0,0 km/h (0 Bft) 96,51 %
29.08.2019 21:00 20,3 C 17,7 C 17,1 C 80 % 1021,4 hPa 0,0 l/m 0,00 h 0,00 h 0 W/m 0,0 km/h (0 Bft) 96,80 %
29.08.2019 22:00 19,0 C 16,7 C 16,2 C 83 % 1022,0 hPa 0,0 l/m 0,00 h 0,00 h 0 W/m 0,0 km/h (0 Bft) 99,43 %
29.08.2019 23:00 18,0 C 16,3 C 16,0 C 86 % 1022,4 hPa 0,0 l/m 0,00 h 0,00 h 0 W/m 0,1 km/h (0 Bft) 97,22 %
30.08.2019 00:00 17,1 C 15,1 C 14,9 C 86 % 1022,7 hPa 0,0 l/m 0,00 h 0,00 h 0 W/m 0,0 km/h (0 Bft) 95,64 %
30.08.2019 01:00 16,2 C 14,1 C 13,8 C 86 % 1022,8 hPa 0,0 l/m 0,00 h 0,00 h 0 W/m 0,0 km/h (0 Bft) 98,15 %
30.08.2019 02:00 15,4 C 13,5 C 13,3 C 88 % 1022,6 hPa 0,0 l/m 0,00 h 0,00 h 0 W/m 0,0 km/h (0 Bft) 98,86 %
30.08.2019 03:00 14,9 C 13,2 C 12,8 C 89 % 1022,7 hPa 0,0 l/m 0,00 h 0,00 h 0 W/m 0,0 km/h (0 Bft) 96,16 %
30.08.2019 04:00 14,4 C 12,8 C 12,8 C 91 % 1022,7 hPa 0,0 l/m 0,00 h 0,00 h 0 W/m 0,2 km/h (0 Bft) 96,73 %
30.08.2019 05:00 14,2 C 12,7 C 12,3 C 93 % 1022,7 hPa 0,0 l/m 0,00 h 0,00 h 0 W/m 0,0 km/h (0 Bft) 98,72 %
30.08.2019 06:00 13,7 C 12,2 C 12,2 C 93 % 1023,1 hPa 0,0 l/m 0,00 h 0,00 h 6 W/m 0,0 km/h (0 Bft) 96,32 %
30.08.2019 07:00 13,6 C 12,8 C 12,5 C 94 % 1023,6 hPa 0,0 l/m 0,00 h 0,00 h 22 W/m 0,0 km/h (0 Bft) 98,94 %
30.08.2019 08:00 14,2 C 14,7 C 14,0 C 96 % 1023,8 hPa 0,0 l/m 0,07 h 0,00 h 65 W/m 0,2 km/h (0 Bft) 95,09 %
30.08.2019 09:00 16,1 C 22,7 C 18,2 C 95 % 1023,9 hPa 0,0 l/m 0,90 h 0,00 h 347 W/m 1,0 km/h (0 Bft) 98,43 %
30.08.2019 10:00 20,3 C 26,7 C 26,5 C 75 % 1024,1 hPa 0,0 l/m 1,00 h 0,00 h 559 W/m 3,5 km/h (1 Bft) 98,93 %
30.08.2019 11:00 22,6 C 28,9 C 22,2 C 64 % 1024,0 hPa 0,0 l/m 1,00 h 0,00 h 708 W/m 3,7 km/h (1 Bft) 96,09 %
30.08.2019 12:00 23,9 C 29,5 C 22,3 C 59 % 1023,7 hPa 0,0 l/m 1,00 h 0,00 h 797 W/m 8,0 km/h (2 Bft) 98,34 %
30.08.2019 13:00 24,9 C 30,5 C 24,6 C 58 % 1023,3 hPa 0,0 l/m 1,00 h 0,00 h 819 W/m 6,9 km/h (2 Bft) 97,58 %
30.08.2019 14:00 25,8 C 31,0 C 27,2 C 55 % 1023,0 hPa 0,0 l/m 1,00 h 0,00 h 801 W/m 8,1 km/h (2 Bft) 96,73 %
30.08.2019 15:00 26,7 C 31,7 C 25,1 C 55 % 1022,4 hPa 0,0 l/m 1,00 h 0,00 h 737 W/m 6,9 km/h (2 Bft) 98,01 %
30.08.2019 16:00 27,5 C 32,0 C 27,2 C 52 % 1021,9 hPa 0,0 l/m 1,00 h 0,00 h 614 W/m 6,3 km/h (2 Bft) 97,61 %
30.08.2019 17:00 27,6 C 31,1 C 25,0 C 51 % 1021,4 hPa 0,0 l/m 1,00 h 0,00 h 451 W/m 3,2 km/h (1 Bft) 98,93 %
30.08.2019 18:00 26,6 C 26,5 C 22,6 C 53 % 1021,1 hPa 0,0 l/m 0,50 h 0,00 h 176 W/m 1,7 km/h (1 Bft) 95,73 %
30.08.2019 19:00 24,6 C 22,3 C 20,5 C 58 % 1021,0 hPa 0,0 l/m 0,00 h 0,00 h 37 W/m 0,0 km/h (0 Bft) 96,87 %
30.08.2019 20:00 22,4 C 19,5 C 18,3 C 63 % 1021,0 hPa 0,0 l/m 0,00 h 0,00 h 12 W/m 0,0 km/h (0 Bft) 99,28 %
30.08.2019 21:00 20,3 C 17,3 C 16,4 C 69 % 1021,1 hPa 0,0 l/m 0,00 h 0,00 h 0 W/m 0,0 km/h (0 Bft) 96,54 %
30.08.2019 22:00 18,5 C 16,0 C 15,3 C 76 % 1020,9 hPa 0,0 l/m 0,00 h 0,00 h 0 W/m 0,0 km/h (0 Bft) 96,30 %
30.08.2019 23:00 17,2 C 14,8 C 14,4 C 78 % 1020,6 hPa 0,0 l/m 0,00 h 0,00 h 0 W/m 0,0 km/h (0 Bft) 97,72 %
31.08.2019 00:00 16,2 C 14,3 C 13,9 C 80 % 1020,4 hPa 0,0 l/m 0,00 h 0,00 h 0 W/m 0,0 km/h (0 Bft) 99,63 %
31.08.2019 01:00 15,5 C 13,6 C 13,1 C 83 % 1019,8 hPa 0,0 l/m 0,00 h 0,00 h 0 W/m 0,0 km/h (0 Bft) 95,87 %
31.08.2019 02:00 14,9 C 13,3 C 12,8 C 85 % 1019,2 hPa 0,0 l/m 0,00 h 0,00 h 0 W/m 0,0 km/h (0 Bft) 97,30 %
31.08.2019 03:00 14,4 C 12,7 C 12,2 C 87 % 1018,4 hPa 0,0 l/m 0,00 h 0,00 h 0 W/m 0,0 km/h (0 Bft) 97,50 %
31.08.2019 04:00 13,9 C 12,2 C 12,0 C 88 % 1017,7 hPa 0,0 l/m 0,00 h 0,00 h 0 W/m 0,0 km/h (0 Bft) 97,17 %
31.08.2019 05:00 13,5 C 11,8 C 11,7 C 90 % 1017,0 hPa 0,0 l/m 0,00 h 0,00 h 0 W/m 0,0 km/h (0 Bft) 97,51 %
31.08.2019 06:00 13,8 C 13,6 C 13,1 C 93 % 1016,6 hPa 0,0 l/m 0,00 h 0,00 h 6 W/m 4,1 km/h (1 Bft) 97,77 %
31.08.2019 07:00 14,7 C 14,7 C 14,1 C 93 % 1016,3 hPa 0,0 l/m 0,00 h 0,00 h 18 W/m 5,5 km/h (1 Bft) 96,67 %
31.08.2019 08:00 16,0 C 16,7 C 15,9 C 91 % 1016,0 hPa 0,0 l/m 0,03 h 0,00 h 49 W/m 9,0 km/h (2 Bft) 98,15 %
31.08.2019 09:00 19,5 C 23,9 C 20,3 C 81 % 1015,6 hPa 0,0 l/m 0,93 h 0,00 h 376 W/m 14,8 km/h (3 Bft) 97,79 %
31.08.2019 10:00 23,6 C 28,6 C 29,3 C 68 % 1015,2 hPa 0,0 l/m 1,00 h 0,00 h 554 W/m 11,2 km/h (2 Bft) 97,79 %
31.08.2019 11:00 26,8 C 32,4 C 26,8 C 60 % 1014,6 hPa 0,0 l/m 1,00 h 0,00 h 686 W/m 9,2 km/h (2 Bft) 97,79 %
31.08.2019 12:00 29,6 C 35,3 C 27,7 C 52 % 1013,8 hPa 0,0 l/m 1,00 h 0,00 h 774 W/m 10,1 km/h (2 Bft) 97,39 %
31.08.2019 13:00 31,4 C 36,4 C 30,7 C 49 % 1013,1 hPa 0,0 l/m 1,00 h 0,00 h 798 W/m 9,6 km/h (2 Bft) 96,58 %
31.08.2019 14:00 32,7 C 37,7 C 33,5 C 47 % 1012,0 hPa 0,0 l/m 1,00 h 0,00 h 780 W/m 8,2 km/h (2 Bft) 98,65 %
31.08.2019 15:00 33,4 C 37,5 C 31,8 C 44 % 1010,8 hPa 0,0 l/m 1,00 h 0,00 h 703 W/m 12,2 km/h (3 Bft) 97,51 %
31.08.2019 16:00 33,8 C 37,0 C 33,6 C 42 % 1009,7 hPa 0,0 l/m 1,00 h 0,00 h 585 W/m 11,2 km/h (2 Bft) 97,09 %
31.08.2019 17:00 33,9 C 35,0 C 31,3 C 41 % 1008,7 hPa 0,0 l/m 0,53 h 0,00 h 314 W/m 5,8 km/h (2 Bft) 99,15 %
31.08.2019 18:00 33,1 C 32,6 C 30,8 C 43 % 1008,2 hPa 0,0 l/m 0,47 h 0,00 h 178 W/m 11,1 km/h (2 Bft) 95,91 %
31.08.2019 19:00 31,5 C 29,3 C 28,1 C 46 % 1007,7 hPa 0,0 l/m 0,00 h 0,00 h 24 W/m 7,1 km/h (2 Bft) 97,73 %
31.08.2019 20:00 29,9 C 27,9 C 26,5 C 50 % 1007,3 hPa 0,0 l/m 0,00 h 0,00 h 5 W/m 3,0 km/h (1 Bft) 97,86 %
31.08.2019 21:00 28,5 C 26,8 C 26,5 C 55 % 1007,9 hPa 0,0 l/m 0,00 h 0,00 h 0 W/m 14,3 km/h (3 Bft) 96,87 %
31.08.2019 22:00 25,5 C 23,3 C 23,4 C 66 % 1008,9 hPa 0,0 l/m 0,00 h 0,00 h 0 W/m 18,0 km/h (3 Bft) 98,29 %
31.08.2019 23:00 21,8 C 20,2 C 20,4 C 70 % 1009,7 hPa 0,0 l/m 0,00 h 0,00 h 0 W/m 14,2 km/h (3 Bft) 96,51 %
01.09.2019 00:00 20,1 C 18,7 C 18,9 C 73 % 1010,8 hPa 0,0 l/m 0,00 h 0,00 h 0 W/m 10,6 km/h (2 Bft) 97,93 %
01.09.2019 01:00 19,0 C 17,6 C 18,0 C 77 % 1011,1 hPa 0,0 l/m 0,00 h 0,00 h 0 W/m 9,6 km/h (2 Bft) 97,37 %
01.09.2019 02:00 18,3 C 17,2 C 17,2 C 81 % 1011,4 hPa 0,0 l/m 0,00 h 0,00 h 0 W/m 7,6 km/h (2 Bft) 96,94 %
01.09.2019 03:00 18,0 C 16,9 C 17,0 C 83 % 1011,6 hPa 0,0 l/m 0,00 h 0,00 h 0 W/m 6,0 km/h (2 Bft) 99,43 %
01.09.2019 04:00 17,6 C 16,5 C 16,6 C 84 % 1011,9 hPa 0,0 l/m 0,00 h 0,00 h 0 W/m 6,2 km/h (2 Bft) 95,67 %
01.09.2019 05:00 17,1 C 16,0 C 16,1 C 87 % 1011,9 hPa 0,0 l/m 0,00 h 0,00 h 0 W/m 4,0 km/h (1 Bft) 97,72 %
01.09.2019 06:00 17,1 C 16,4 C 16,5 C 89 % 1012,0 hPa 0,0 l/m 0,00 h 0,00 h 5 W/m 5,0 km/h (1 Bft) 99,63 %
01.09.2019 07:00 17,2 C 16,1 C 16,2 C 89 % 1012,5 hPa 0,0 l/m 0,00 h 0,13 h 12 W/m 5,5 km/h (1 Bft) 95,45 %
01.09.2019 08:00 17,1 C 16,5 C 16,3 C 89 % 1013,4 hPa 0,0 l/m 0,00 h 0,00 h 28 W/m 4,3 km/h (1 Bft) 97,23 %
01.09.2019 09:00 17,5 C 18,1 C 17,5 C 88 % 1014,1 hPa 0,0 l/m 0,10 h 0,00 h 128 W/m 3,3 km/h (1 Bft) 99,50 %
01.09.2019 10:00 18,5 C 20,2 C 19,3 C 83 % 1014,9 hPa 0,0 l/m 0,33 h 0,00 h 235 W/m 4,2 km/h (1 Bft) 96,44 %
01.09.2019 11:00 20,2 C 23,2 C 21,1 C 74 % 1015,4 hPa 0,0 l/m 0,87 h 0,00 h 386 W/m 9,7 km/h (2 Bft) 96,44 %
01.09.2019 12:00 21,2 C 24,0 C 21,5 C 70 % 1015,7 hPa 0,0 l/m 0,60 h 0,00 h 389 W/m 10,6 km/h (2 Bft) 98,16 %
01.09.2019 13:00 21,3 C 22,8 C 21,0 C 65 % 1015,9 hPa 0,0 l/m 0,30 h 0,00 h 383 W/m 10,9 km/h (2 Bft) 98,65 %
01.09.2019 14:00 20,9 C 22,4 C 20,9 C 66 % 1016,2 hPa 0,0 l/m 0,37 h 0,00 h 331 W/m 8,9 km/h (2 Bft) 97,02 %
01.09.2019 15:00 21,6 C 25,0 C 21,3 C 64 % 1016,4 hPa 0,0 l/m 0,63 h 0,00 h 501 W/m 9,2 km/h (2 Bft) 96,60 %
01.09.2019 16:00 22,5 C 25,9 C 22,5 C 57 % 1016,4 hPa 0,0 l/m 0,83 h 0,00 h 552 W/m 10,0 km/h (2 Bft) 99,14 %
01.09.2019 17:00 21,8 C 24,3 C 20,5 C 53 % 1016,3 hPa 0,0 l/m 0,63 h 0,00 h 340 W/m 10,2 km/h (2 Bft) 96,39 %
01.09.2019 18:00 21,5 C 21,3 C 19,4 C 54 % 1016,6 hPa 0,0 l/m 0,43 h 0,00 h 165 W/m 9,1 km/h (2 Bft) 97,05 %
01.09.2019 19:00 19,6 C 18,1 C 17,9 C 59 % 1017,1 hPa 0,0 l/m 0,00 h 0,00 h 34 W/m 2,9 km/h (1 Bft) 98,95 %
01.09.2019 20:00 18,4 C 16,6 C 16,6 C 62 % 1018,0 hPa 0,0 l/m 0,00 h 0,00 h 8 W/m 1,9 km/h (1 Bft) 95,75 %
01.09.2019 21:00 17,1 C 14,9 C 14,8 C 67 % 1018,8 hPa 0,0 l/m 0,00 h 0,00 h 0 W/m 0,0 km/h (0 Bft) 97,71 %
01.09.2019 22:00 15,7 C 13,3 C 13,0 C 70 % 1019,3 hPa 0,0 l/m 0,00 h 0,00 h 0 W/m 0,0 km/h (0 Bft) 99,49 %
01.09.2019 23:00 14,4 C 12,5 C 12,1 C 74 % 1019,8 hPa 0,0 l/m 0,00 h 0,00 h 0 W/m 0,5 km/h (0 Bft) 96,09 %
Min-Datum _ 31.08.19 31.08.19 31.08.19 27.08.19 31.08.19 - - - - 26.08.19 27.08.19
_ Min-Zeit 05:54 05:12 04:28 17:10 20:38 - - - - 00:00 10:58
Minimum _ 13,3 C 11,7 C 11,7 C 39 % 1007,2 hPa - - - - 0,0 km/h (0 Bft) 51,22 %
Max-Datum _ 27.08.19 27.08.19 27.08.19 29.08.19 30.08.19 29.08.19 26.08.19 29.08.19 01.09.19 31.08.19 26.08.19
_ Max-Zeit 15:42 15:34 14:08 08:50 10:32 05:32 12:08 06:08 13:22 21:38 00:02
Maximum _ 35,2 C 41,7 C 41,1 C 97 % 1024,3 hPa 8,4 l/m 0,07 h 0,07 h 976 W/m 29,0 km/h
S-SO (5 Bft)
100,00 %
Durchschnitt _ 23,2 C 23,7 C 21,9 C 72 % 1016,5 hPa #10,6 l/m #57:30 h #1:26 h 346 W/m 4,4 km/h (1 Bft) 97,49 %
© 2019 W. Hausmann